createdAt,value
2018-12-27T00:00:46.659Z,0
2018-12-27T00:01:49.277Z,0
2018-12-27T00:02:54.809Z,0
2018-12-27T00:03:57.469Z,0
2018-12-27T00:04:59.516Z,0
2018-12-27T00:06:01.592Z,0
2018-12-27T00:07:03.639Z,0
2018-12-27T00:08:05.810Z,0
2018-12-27T00:09:07.912Z,0
2018-12-27T00:10:10.366Z,0
2018-12-27T00:11:12.717Z,0
2018-12-27T00:12:14.762Z,0
2018-12-27T00:13:17.084Z,0
2018-12-27T00:14:19.128Z,0
2018-12-27T00:15:21.166Z,0
2018-12-27T00:16:23.496Z,0
2018-12-27T00:17:25.526Z,0
2018-12-27T00:18:27.852Z,0
2018-12-27T00:19:30.291Z,0
2018-12-27T00:20:32.476Z,0
2018-12-27T00:21:34.504Z,0
2018-12-27T00:22:36.718Z,0
2018-12-27T00:23:38.868Z,0
2018-12-27T00:24:41.170Z,0
2018-12-27T00:25:43.530Z,0
2018-12-27T00:26:45.590Z,0
2018-12-27T00:27:47.952Z,0
2018-12-27T00:28:50.287Z,0
2018-12-27T00:29:52.336Z,0
2018-12-27T00:30:54.746Z,0
2018-12-27T00:31:56.807Z,0
2018-12-27T00:33:03.047Z,0
2018-12-27T00:34:05.802Z,0
2018-12-27T00:35:08.239Z,0
2018-12-27T00:36:10.320Z,0
2018-12-27T00:37:12.362Z,0
2018-12-27T00:38:14.407Z,0
2018-12-27T00:39:16.453Z,0
2018-12-27T00:40:18.519Z,0
2018-12-27T00:41:20.549Z,0
2018-12-27T00:42:22.865Z,0
2018-12-27T00:43:24.932Z,0
2018-12-27T00:44:27.051Z,0
2018-12-27T00:45:29.377Z,0
2018-12-27T00:46:31.440Z,0
2018-12-27T00:47:33.493Z,0
2018-12-27T00:48:35.539Z,0
2018-12-27T00:49:37.601Z,0
2018-12-27T00:50:39.641Z,0
2018-12-27T00:51:41.677Z,0
2018-12-27T00:52:43.786Z,0
2018-12-27T00:53:45.838Z,0
2018-12-27T00:54:47.863Z,0
2018-12-27T00:55:49.913Z,0
2018-12-27T00:56:51.998Z,0
2018-12-27T00:57:54.043Z,0
2018-12-27T00:58:56.083Z,0
2018-12-27T00:59:58.109Z,0
2018-12-27T01:01:00.533Z,0
2018-12-27T01:02:02.581Z,0
2018-12-27T01:03:10.974Z,0
2018-12-27T01:04:14.155Z,0
2018-12-27T01:05:16.205Z,0
2018-12-27T01:06:18.840Z,0
2018-12-27T01:07:20.883Z,0
2018-12-27T01:08:22.938Z,0
2018-12-27T01:09:24.969Z,0
2018-12-27T01:10:27.024Z,0
2018-12-27T01:11:29.055Z,0
2018-12-27T01:12:31.085Z,0
2018-12-27T01:13:33.128Z,0
2018-12-27T01:14:35.171Z,0
2018-12-27T01:15:37.217Z,0
2018-12-27T01:16:39.590Z,0
2018-12-27T01:17:41.639Z,0
2018-12-27T01:18:43.673Z,0
2018-12-27T01:19:46.008Z,0
2018-12-27T01:20:48.040Z,0
2018-12-27T01:21:50.090Z,0
2018-12-27T01:22:52.406Z,0
2018-12-27T01:23:54.447Z,0
2018-12-27T01:24:56.491Z,0
2018-12-27T01:25:58.908Z,0
2018-12-27T01:27:01.249Z,0
2018-12-27T01:28:03.293Z,0
2018-12-27T01:29:05.339Z,0
2018-12-27T01:30:07.393Z,0
2018-12-27T01:31:09.436Z,0
2018-12-27T01:32:11.485Z,0
2018-12-27T01:33:18.642Z,0
2018-12-27T01:34:21.016Z,0
2018-12-27T01:35:23.370Z,0
2018-12-27T01:36:25.422Z,0
2018-12-27T01:37:27.481Z,0
2018-12-27T01:38:29.808Z,0
2018-12-27T01:39:31.868Z,0
2018-12-27T01:40:34.209Z,0
2018-12-27T01:41:36.254Z,0
2018-12-27T01:42:38.366Z,0
2018-12-27T01:43:40.403Z,0
2018-12-27T01:44:42.439Z,0
2018-12-27T01:45:44.494Z,0
2018-12-27T01:46:46.529Z,0
2018-12-27T01:47:48.587Z,0
2018-12-27T01:48:50.625Z,0
2018-12-27T01:49:52.744Z,0
2018-12-27T01:50:54.781Z,0
2018-12-27T01:51:56.817Z,0
2018-12-27T01:52:58.868Z,0
2018-12-27T01:54:00.921Z,0
2018-12-27T01:55:02.974Z,0
2018-12-27T01:56:05.016Z,0
2018-12-27T01:57:07.063Z,0
2018-12-27T01:58:09.381Z,0
2018-12-27T01:59:11.719Z,0
2018-12-27T02:00:13.756Z,0
2018-12-27T02:01:15.806Z,0
2018-12-27T02:02:17.852Z,0
2018-12-27T02:03:26.307Z,0
2018-12-27T02:04:28.672Z,0
2018-12-27T02:05:30.740Z,0
2018-12-27T02:06:32.783Z,0
2018-12-27T02:07:34.840Z,0
2018-12-27T02:08:36.905Z,0
2018-12-27T02:09:38.942Z,0
2018-12-27T02:10:40.995Z,0
2018-12-27T02:11:43.439Z,0
2018-12-27T02:12:45.478Z,0
2018-12-27T02:13:47.582Z,0
2018-12-27T02:14:49.614Z,0
2018-12-27T02:15:51.675Z,0
2018-12-27T02:16:53.734Z,0
2018-12-27T02:17:55.775Z,0
2018-12-27T02:18:57.811Z,0
2018-12-27T02:19:59.865Z,0
2018-12-27T02:21:01.981Z,0
2018-12-27T02:22:04.028Z,0
2018-12-27T02:23:06.079Z,0
2018-12-27T02:24:08.190Z,0
2018-12-27T02:25:10.249Z,0
2018-12-27T02:26:12.301Z,0
2018-12-27T02:27:14.729Z,0
2018-12-27T02:28:16.771Z,0
2018-12-27T02:29:18.838Z,0
2018-12-27T02:30:21.172Z,0
2018-12-27T02:31:23.824Z,0
2018-12-27T02:32:25.876Z,0
2018-12-27T02:33:35.161Z,0
2018-12-27T02:34:37.712Z,0
2018-12-27T02:35:39.768Z,0
2018-12-27T02:36:42.103Z,0
2018-12-27T02:37:44.531Z,0
2018-12-27T02:38:46.593Z,0
2018-12-27T02:39:48.637Z,0
2018-12-27T02:40:50.965Z,0
2018-12-27T02:41:53.394Z,0
2018-12-27T02:42:55.439Z,0
2018-12-27T02:43:57.788Z,0
2018-12-27T02:44:59.843Z,0
2018-12-27T02:46:01.987Z,0
2018-12-27T02:47:04.026Z,0
2018-12-27T02:48:06.072Z,0
2018-12-27T02:49:08.251Z,0
2018-12-27T02:50:10.290Z,0
2018-12-27T02:51:12.333Z,0
2018-12-27T02:52:14.387Z,0
2018-12-27T02:53:16.730Z,0
2018-12-27T02:54:18.826Z,0
2018-12-27T02:55:21.451Z,0
2018-12-27T02:56:23.612Z,0
2018-12-27T02:57:25.658Z,0
2018-12-27T02:58:27.703Z,0
2018-12-27T02:59:29.752Z,0
2018-12-27T03:00:31.808Z,0
2018-12-27T03:01:34.253Z,0
2018-12-27T03:02:36.580Z,0
2018-12-27T03:03:43.732Z,0
2018-12-27T03:04:46.405Z,0
2018-12-27T03:05:49.030Z,0
2018-12-27T03:06:51.073Z,0
2018-12-27T03:07:53.105Z,0
2018-12-27T03:08:55.161Z,0
2018-12-27T03:09:57.499Z,0
2018-12-27T03:10:59.585Z,0
2018-12-27T03:12:01.913Z,0
2018-12-27T03:13:03.977Z,0
2018-12-27T03:14:06.070Z,0
2018-12-27T03:15:08.129Z,0
2018-12-27T03:16:10.192Z,0
2018-12-27T03:17:12.377Z,0
2018-12-27T03:18:15.222Z,0
2018-12-27T03:19:17.260Z,0
2018-12-27T03:20:19.598Z,0
2018-12-27T03:21:22.060Z,0
2018-12-27T03:22:24.180Z,0
2018-12-27T03:23:26.221Z,0
2018-12-27T03:24:28.568Z,0
2018-12-27T03:25:30.632Z,0
2018-12-27T03:26:33.059Z,0
2018-12-27T03:27:35.680Z,0
2018-12-27T03:28:38.121Z,0
2018-12-27T03:29:40.156Z,0
2018-12-27T03:30:42.200Z,0
2018-12-27T03:31:44.300Z,0
2018-12-27T03:32:47.082Z,0
2018-12-27T03:33:52.718Z,0
2018-12-27T03:34:55.386Z,0
2018-12-27T03:35:57.431Z,0
2018-12-27T03:36:59.488Z,0
2018-12-27T03:38:01.815Z,0
2018-12-27T03:39:03.862Z,0
2018-12-27T03:40:05.912Z,0
2018-12-27T03:41:07.956Z,0
2018-12-27T03:42:09.997Z,0
2018-12-27T03:43:12.325Z,0
2018-12-27T03:44:14.376Z,0
2018-12-27T03:45:16.711Z,0
2018-12-27T03:46:18.763Z,0
2018-12-27T03:47:20.798Z,0
2018-12-27T03:48:22.849Z,0
2018-12-27T03:49:25.175Z,0
2018-12-27T03:50:28.129Z,0
2018-12-27T03:51:30.181Z,0
2018-12-27T03:52:32.243Z,0
2018-12-27T03:53:34.297Z,0
2018-12-27T03:54:36.723Z,0
2018-12-27T03:55:39.152Z,0
2018-12-27T03:56:41.594Z,0
2018-12-27T03:57:43.649Z,0
2018-12-27T03:58:45.726Z,0
2018-12-27T03:59:48.068Z,0
2018-12-27T04:00:50.120Z,0
2018-12-27T04:01:52.463Z,0
2018-12-27T04:02:54.495Z,0
2018-12-27T04:04:01.198Z,0
2018-12-27T04:05:04.318Z,0
2018-12-27T04:06:06.372Z,0
2018-12-27T04:07:08.785Z,0
2018-12-27T04:08:10.926Z,0
2018-12-27T04:09:13.643Z,0
2018-12-27T04:10:15.691Z,0
2018-12-27T04:11:17.732Z,0
2018-12-27T04:12:19.881Z,0
2018-12-27T04:13:21.923Z,0
2018-12-27T04:14:23.982Z,0
2018-12-27T04:15:26.048Z,0
2018-12-27T04:16:28.163Z,0
2018-12-27T04:17:30.210Z,0
2018-12-27T04:18:32.546Z,0
2018-12-27T04:19:34.619Z,0
2018-12-27T04:20:36.954Z,0
2018-12-27T04:21:38.991Z,0
2018-12-27T04:22:41.064Z,0
2018-12-27T04:23:43.392Z,0
2018-12-27T04:24:45.432Z,0
2018-12-27T04:25:47.768Z,0
2018-12-27T04:26:49.818Z,0
2018-12-27T04:27:51.866Z,0
2018-12-27T04:28:53.910Z,0
2018-12-27T04:29:56.528Z,0
2018-12-27T04:30:58.907Z,0
2018-12-27T04:32:01.242Z,0
2018-12-27T04:33:03.303Z,0
2018-12-27T04:34:09.420Z,0
2018-12-27T04:35:12.119Z,0
2018-12-27T04:36:14.175Z,0
2018-12-27T04:37:16.222Z,0
2018-12-27T04:38:18.656Z,0
2018-12-27T04:39:20.703Z,0
2018-12-27T04:40:23.070Z,0
2018-12-27T04:41:25.121Z,0
2018-12-27T04:42:27.445Z,0
2018-12-27T04:43:29.873Z,0
2018-12-27T04:44:31.909Z,0
2018-12-27T04:45:33.952Z,0
2018-12-27T04:46:36.280Z,0
2018-12-27T04:47:38.611Z,0
2018-12-27T04:48:40.689Z,0
2018-12-27T04:49:42.746Z,0
2018-12-27T04:50:45.158Z,0
2018-12-27T04:51:47.192Z,0
2018-12-27T04:52:49.630Z,0
2018-12-27T04:53:52.450Z,0
2018-12-27T04:54:54.486Z,0
2018-12-27T04:55:56.533Z,0
2018-12-27T04:56:58.861Z,0
2018-12-27T04:58:01.188Z,0
2018-12-27T04:59:03.513Z,0
2018-12-27T05:00:05.558Z,0
2018-12-27T05:01:08.300Z,0
2018-12-27T05:02:10.350Z,0
2018-12-27T05:03:12.382Z,0
2018-12-27T05:04:18.231Z,0
2018-12-27T05:05:20.595Z,0
2018-12-27T05:06:22.919Z,0
2018-12-27T05:07:24.956Z,0
2018-12-27T05:08:26.986Z,0
2018-12-27T05:09:29.034Z,0
2018-12-27T05:10:31.082Z,0
2018-12-27T05:11:33.134Z,0
2018-12-27T05:12:35.194Z,0
2018-12-27T05:13:37.233Z,0
2018-12-27T05:14:39.553Z,0
2018-12-27T05:15:41.736Z,0
2018-12-27T05:16:43.764Z,0
2018-12-27T05:17:45.807Z,0
2018-12-27T05:18:47.842Z,0
2018-12-27T05:19:49.945Z,0
2018-12-27T05:20:51.989Z,0
2018-12-27T05:21:54.068Z,0
2018-12-27T05:22:56.395Z,0
2018-12-27T05:23:58.433Z,0
2018-12-27T05:25:00.499Z,0
2018-12-27T05:26:02.553Z,0
2018-12-27T05:27:04.604Z,0
2018-12-27T05:28:06.936Z,0
2018-12-27T05:29:08.976Z,0
2018-12-27T05:30:11.051Z,0
2018-12-27T05:31:13.079Z,0
2018-12-27T05:32:15.120Z,0
2018-12-27T05:33:17.158Z,0
2018-12-27T05:34:25.950Z,0
2018-12-27T05:35:28.470Z,0
2018-12-27T05:36:30.549Z,0
2018-12-27T05:37:33.201Z,0
2018-12-27T05:38:35.541Z,0
2018-12-27T05:39:37.586Z,0
2018-12-27T05:40:39.629Z,0
2018-12-27T05:41:41.673Z,0
2018-12-27T05:42:43.720Z,0
2018-12-27T05:43:46.140Z,0
2018-12-27T05:44:48.566Z,0
2018-12-27T05:45:50.609Z,0
2018-12-27T05:46:52.947Z,0
2018-12-27T05:47:55.005Z,0
2018-12-27T05:48:57.403Z,0
2018-12-27T05:49:59.445Z,0
2018-12-27T05:51:01.489Z,0
2018-12-27T05:52:03.540Z,0
2018-12-27T05:53:05.590Z,0
2018-12-27T05:54:07.627Z,0
2018-12-27T05:55:09.670Z,0
2018-12-27T05:56:11.705Z,0
2018-12-27T05:57:13.749Z,0
2018-12-27T05:58:15.794Z,0
2018-12-27T05:59:17.857Z,0
2018-12-27T06:00:19.897Z,0
2018-12-27T06:01:21.928Z,0
2018-12-27T06:02:23.970Z,0
2018-12-27T06:03:26.026Z,0
2018-12-27T06:04:33.635Z,0
2018-12-27T06:05:36.258Z,0
2018-12-27T06:06:38.314Z,0
2018-12-27T06:07:40.347Z,0
2018-12-27T06:08:42.395Z,0
2018-12-27T06:09:44.444Z,0
2018-12-27T06:10:46.502Z,0
2018-12-27T06:11:48.545Z,0
2018-12-27T06:12:50.593Z,0
2018-12-27T06:13:52.643Z,0
2018-12-27T06:14:54.964Z,0
2018-12-27T06:15:57.011Z,0
2018-12-27T06:16:59.052Z,0
2018-12-27T06:18:01.093Z,0
2018-12-27T06:19:03.130Z,0
2018-12-27T06:20:05.169Z,0
2018-12-27T06:21:07.219Z,0
2018-12-27T06:22:09.269Z,0
2018-12-27T06:23:11.327Z,0
2018-12-27T06:24:13.384Z,0
2018-12-27T06:25:15.438Z,0
2018-12-27T06:26:18.179Z,0
2018-12-27T06:27:20.220Z,0
2018-12-27T06:28:22.717Z,0
2018-12-27T06:29:24.797Z,0
2018-12-27T06:30:26.926Z,0
2018-12-27T06:31:28.975Z,0
2018-12-27T06:32:31.320Z,0
2018-12-27T06:33:33.367Z,0
2018-12-27T06:34:41.240Z,0
2018-12-27T06:35:43.661Z,0
2018-12-27T06:36:45.728Z,0
2018-12-27T06:37:47.770Z,0
2018-12-27T06:38:49.824Z,0
2018-12-27T06:39:51.868Z,0
2018-12-27T06:40:53.919Z,0
2018-12-27T06:41:55.963Z,0
2018-12-27T06:42:58.003Z,0
2018-12-27T06:44:00.106Z,0
2018-12-27T06:45:02.149Z,0
2018-12-27T06:46:04.582Z,0
2018-12-27T06:47:06.613Z,0
2018-12-27T06:48:08.653Z,0
2018-12-27T06:49:10.691Z,0
2018-12-27T06:50:13.862Z,0
2018-12-27T06:51:15.897Z,0
2018-12-27T06:52:17.942Z,0
2018-12-27T06:53:20.265Z,0
2018-12-27T06:54:22.320Z,0
2018-12-27T06:55:24.425Z,0
2018-12-27T06:56:26.477Z,0
2018-12-27T06:57:28.539Z,4
2018-12-27T06:58:37.541Z,4
2018-12-27T06:59:39.945Z,0
2018-12-27T07:00:41.983Z,4
2018-12-27T07:01:44.042Z,4
2018-12-27T07:02:46.094Z,4
2018-12-27T07:03:48.152Z,4
2018-12-27T07:04:50.202Z,4
2018-12-27T07:05:52.540Z,4
2018-12-27T07:06:54.874Z,8
2018-12-27T07:07:57.607Z,12
2018-12-27T07:08:59.672Z,12
2018-12-27T07:10:01.730Z,12
2018-12-27T07:11:03.779Z,12
2018-12-27T07:12:05.808Z,16
2018-12-27T07:13:07.862Z,16
2018-12-27T07:14:10.302Z,20
2018-12-27T07:15:12.340Z,20
2018-12-27T07:16:14.410Z,24
2018-12-27T07:17:16.859Z,32
2018-12-27T07:18:19.199Z,36
2018-12-27T07:19:21.236Z,40
2018-12-27T07:20:23.562Z,56
2018-12-27T07:21:25.614Z,52
2018-12-27T07:22:27.649Z,52
2018-12-27T07:23:29.698Z,56
2018-12-27T07:24:32.127Z,56
2018-12-27T07:25:34.545Z,64
2018-12-27T07:26:36.591Z,68
2018-12-27T07:27:38.625Z,64
2018-12-27T07:28:40.663Z,84
2018-12-27T07:29:42.717Z,84
2018-12-27T07:30:44.750Z,84
2018-12-27T07:31:46.803Z,92
2018-12-27T07:32:48.853Z,96
2018-12-27T07:33:50.886Z,100
2018-12-27T07:34:56.368Z,120
2018-12-27T07:35:58.740Z,128
2018-12-27T07:37:00.790Z,136
2018-12-27T07:38:02.851Z,144
2018-12-27T07:39:04.913Z,152
2018-12-27T07:40:06.947Z,168
2018-12-27T07:41:09.382Z,188
2018-12-27T07:42:11.428Z,200
2018-12-27T07:43:13.483Z,196
2018-12-27T07:44:16.109Z,208
2018-12-27T07:45:18.822Z,208
2018-12-27T07:46:20.881Z,216
2018-12-27T07:47:22.929Z,236
2018-12-27T07:48:24.972Z,256
2018-12-27T07:49:27.029Z,276
2018-12-27T07:50:29.096Z,296
2018-12-27T07:51:31.224Z,312
2018-12-27T07:52:33.276Z,320
2018-12-27T07:53:35.614Z,304
2018-12-27T07:54:37.707Z,308
2018-12-27T07:55:39.763Z,312
2018-12-27T07:56:42.205Z,332
2018-12-27T07:57:44.239Z,380
2018-12-27T07:58:46.290Z,380
2018-12-27T07:59:48.390Z,432
2018-12-27T08:00:50.718Z,460
2018-12-27T08:01:52.751Z,492
2018-12-27T08:02:54.797Z,464
2018-12-27T08:03:56.863Z,472
2018-12-27T08:05:03.819Z,480
2018-12-27T08:06:06.511Z,464
2018-12-27T08:07:09.226Z,464
2018-12-27T08:08:11.331Z,464
2018-12-27T08:09:14.081Z,516
2018-12-27T08:10:16.415Z,516
2018-12-27T08:11:18.453Z,560
2018-12-27T08:12:20.498Z,512
2018-12-27T08:13:22.541Z,524
2018-12-27T08:14:24.587Z,484
2018-12-27T08:15:26.672Z,520
2018-12-27T08:16:28.785Z,576
2018-12-27T08:17:30.838Z,564
2018-12-27T08:18:32.891Z,576
2018-12-27T08:19:35.246Z,688
2018-12-27T08:20:37.299Z,652
2018-12-27T08:21:39.333Z,688
2018-12-27T08:22:41.382Z,632
2018-12-27T08:23:43.458Z,664
2018-12-27T08:24:45.885Z,712
2018-12-27T08:25:48.208Z,764
2018-12-27T08:26:50.258Z,800
2018-12-27T08:27:52.587Z,732
2018-12-27T08:28:54.655Z,704
2018-12-27T08:29:58.358Z,704
2018-12-27T08:31:00.397Z,808
2018-12-27T08:32:02.451Z,784
2018-12-27T08:33:04.578Z,808
2018-12-27T08:34:06.638Z,860
2018-12-27T08:35:11.541Z,828
2018-12-27T08:36:14.279Z,792
2018-12-27T08:37:16.314Z,784
2018-12-27T08:38:18.347Z,840
2018-12-27T08:39:20.481Z,784
2018-12-27T08:40:22.930Z,752
2018-12-27T08:41:25.356Z,732
2018-12-27T08:42:27.487Z,744
2018-12-27T08:43:29.631Z,748
2018-12-27T08:44:31.779Z,804
2018-12-27T08:45:33.902Z,836
2018-12-27T08:46:36.034Z,840
2018-12-27T08:47:38.163Z,844
2018-12-27T08:48:40.302Z,920
2018-12-27T08:49:42.781Z,936
2018-12-27T08:50:45.415Z,944
2018-12-27T08:51:47.841Z,884
2018-12-27T08:52:49.993Z,920
2018-12-27T08:53:52.112Z,1020
2018-12-27T08:54:54.249Z,1104
2018-12-27T08:55:56.407Z,1088
2018-12-27T08:56:58.807Z,1060
2018-12-27T08:58:00.954Z,1200
2018-12-27T08:59:03.447Z,1184
2018-12-27T09:00:05.589Z,1176
2018-12-27T09:01:07.724Z,1152
2018-12-27T09:02:10.134Z,1220
2018-12-27T09:03:12.291Z,1324
2018-12-27T09:04:14.432Z,1336
2018-12-27T09:05:18.944Z,1288
2018-12-27T09:06:21.830Z,1368
2018-12-27T09:07:23.980Z,1380
2018-12-27T09:08:26.499Z,1396
2018-12-27T09:09:28.624Z,1348
2018-12-27T09:10:30.759Z,1320
2018-12-27T09:11:33.190Z,1364
2018-12-27T09:12:36.164Z,1392
2018-12-27T09:13:38.374Z,1340
2018-12-27T09:14:40.890Z,1268
2018-12-27T09:15:43.011Z,1284
2018-12-27T09:16:45.146Z,1164
2018-12-27T09:17:47.278Z,1136
2018-12-27T09:18:49.427Z,1192
2018-12-27T09:19:51.575Z,1116
2018-12-27T09:20:53.719Z,1088
2018-12-27T09:21:55.861Z,972
2018-12-27T09:22:58.288Z,1040
2018-12-27T09:24:00.430Z,1000
2018-12-27T09:25:02.572Z,1036
2018-12-27T09:26:04.734Z,1060
2018-12-27T09:27:06.876Z,1048
2018-12-27T09:28:09.284Z,1060
2018-12-27T09:29:11.419Z,1088
2018-12-27T09:30:13.933Z,1040
2018-12-27T09:31:16.078Z,1040
2018-12-27T09:32:18.229Z,1068
2018-12-27T09:33:20.405Z,1188
2018-12-27T09:34:23.227Z,1264
2018-12-27T09:35:26.396Z,1212
2018-12-27T09:36:28.706Z,1240
2018-12-27T09:37:30.855Z,1240
2018-12-27T09:38:32.992Z,1212
2018-12-27T09:39:35.135Z,1184
2018-12-27T09:40:37.270Z,1236
2018-12-27T09:41:39.423Z,1244
2018-12-27T09:42:41.560Z,1372
2018-12-27T09:43:43.721Z,1500
2018-12-27T09:44:45.874Z,1520
2018-12-27T09:45:48.031Z,1540
2018-12-27T09:46:50.177Z,1476
2018-12-27T09:47:52.351Z,1568
2018-12-27T09:48:54.501Z,1556
2018-12-27T09:49:56.628Z,1556
2018-12-27T09:50:58.762Z,1636
2018-12-27T09:52:02.117Z,1736
2018-12-27T09:53:04.462Z,1748
2018-12-27T09:54:06.617Z,1836
2018-12-27T09:55:08.768Z,1608
2018-12-27T09:56:10.878Z,1668
2018-12-27T09:57:13.003Z,1800
2018-12-27T09:58:15.139Z,2060
2018-12-27T09:59:17.266Z,1892
2018-12-27T10:00:20.102Z,1892
2018-12-27T10:01:22.314Z,2024
2018-12-27T10:02:24.459Z,1820
2018-12-27T10:03:26.599Z,1796
2018-12-27T10:04:29.192Z,1692
2018-12-27T10:05:33.956Z,1772
2018-12-27T10:06:36.527Z,2108
2018-12-27T10:07:38.691Z,1976
2018-12-27T10:08:40.848Z,2028
2018-12-27T10:09:42.980Z,1948
2018-12-27T10:10:45.129Z,1876
2018-12-27T10:11:47.296Z,1956
2018-12-27T10:12:49.433Z,2024
2018-12-27T10:13:51.572Z,1864
2018-12-27T10:14:53.691Z,1748
2018-12-27T10:15:55.817Z,1812
2018-12-27T10:16:57.958Z,1768
2018-12-27T10:18:00.101Z,1928
2018-12-27T10:19:02.241Z,1816
2018-12-27T10:20:04.664Z,1684
2018-12-27T10:21:06.803Z,1572
2018-12-27T10:22:09.003Z,1780
2018-12-27T10:23:11.135Z,1704
2018-12-27T10:24:13.272Z,1532
2018-12-27T10:25:15.417Z,1384
2018-12-27T10:26:17.555Z,1468
2018-12-27T10:27:19.734Z,1324
2018-12-27T10:28:21.866Z,1312
2018-12-27T10:29:24.169Z,1356
2018-12-27T10:30:26.382Z,1392
2018-12-27T10:31:28.524Z,1316
2018-12-27T10:32:30.679Z,1436
2018-12-27T10:33:32.824Z,1580
2018-12-27T10:34:34.950Z,1732
2018-12-27T10:35:41.030Z,1948
2018-12-27T10:36:43.420Z,2108
2018-12-27T10:37:46.214Z,2064
2018-12-27T10:38:49.039Z,2372
2018-12-27T10:39:51.177Z,2372
2018-12-27T10:40:53.382Z,2556
2018-12-27T10:41:55.517Z,2316
2018-12-27T10:42:57.674Z,2464
2018-12-27T10:44:00.104Z,2484
2018-12-27T10:45:02.224Z,2392
2018-12-27T10:46:04.357Z,1964
2018-12-27T10:47:06.801Z,1876
2018-12-27T10:48:08.933Z,1584
2018-12-27T10:49:11.082Z,1736
2018-12-27T10:50:13.220Z,2168
2018-12-27T10:51:15.353Z,2048
2018-12-27T10:52:17.465Z,2100
2018-12-27T10:53:19.914Z,2104
2018-12-27T10:54:22.133Z,2120
2018-12-27T10:55:24.264Z,2156
2018-12-27T10:56:26.386Z,2300
2018-12-27T10:57:28.803Z,2548
2018-12-27T10:58:30.954Z,3152
2018-12-27T10:59:33.098Z,3356
2018-12-27T11:00:35.262Z,3172
2018-12-27T11:01:37.418Z,3072
2018-12-27T11:02:39.896Z,3080
2018-12-27T11:03:42.022Z,2408
2018-12-27T11:04:44.153Z,1892
2018-12-27T11:05:48.680Z,1692
2018-12-27T11:06:51.098Z,1640
2018-12-27T11:07:53.223Z,1580
2018-12-27T11:08:55.380Z,1620
2018-12-27T11:09:57.543Z,1720
2018-12-27T11:10:59.975Z,1664
2018-12-27T11:12:02.486Z,1608
2018-12-27T11:13:04.647Z,1512
2018-12-27T11:14:06.782Z,1484
2018-12-27T11:15:08.933Z,1296
2018-12-27T11:16:11.049Z,1388
2018-12-27T11:17:13.474Z,1532
2018-12-27T11:18:15.607Z,1704
2018-12-27T11:19:17.750Z,1744
2018-12-27T11:20:19.902Z,1972
2018-12-27T11:21:22.025Z,2144
2018-12-27T11:22:24.430Z,2216
2018-12-27T11:23:26.610Z,2404
2018-12-27T11:24:29.044Z,2144
2018-12-27T11:25:31.193Z,2088
2018-12-27T11:26:33.343Z,2108
2018-12-27T11:27:35.486Z,2152
2018-12-27T11:28:37.629Z,2124
2018-12-27T11:29:39.791Z,2148
2018-12-27T11:30:41.918Z,2240
2018-12-27T11:31:44.055Z,2284
2018-12-27T11:32:46.216Z,2268
2018-12-27T11:33:48.638Z,2252
2018-12-27T11:34:50.756Z,2352
2018-12-27T11:35:55.841Z,2280
2018-12-27T11:36:58.206Z,2204
2018-12-27T11:38:00.336Z,2148
2018-12-27T11:39:02.473Z,2092
2018-12-27T11:40:04.618Z,2168
2018-12-27T11:41:06.772Z,2056
2018-12-27T11:42:09.581Z,1984
2018-12-27T11:43:12.435Z,2068
2018-12-27T11:44:14.578Z,2108
2018-12-27T11:45:16.721Z,2068
2018-12-27T11:46:18.857Z,2000
2018-12-27T11:47:20.988Z,2020
2018-12-27T11:48:23.125Z,1884
2018-12-27T11:49:25.257Z,1804
2018-12-27T11:50:27.421Z,1712
2018-12-27T11:51:29.563Z,1624
2018-12-27T11:52:31.707Z,1564
2018-12-27T11:53:33.839Z,1448
2018-12-27T11:54:35.980Z,1260
2018-12-27T11:55:38.122Z,1256
2018-12-27T11:56:40.261Z,1344
2018-12-27T11:57:42.411Z,1256
2018-12-27T11:58:44.593Z,1248
2018-12-27T11:59:46.744Z,1104
2018-12-27T12:00:48.897Z,1096
2018-12-27T12:01:51.044Z,992
2018-12-27T12:02:53.211Z,960
2018-12-27T12:03:55.403Z,996
2018-12-27T12:04:57.537Z,1108
2018-12-27T12:06:03.121Z,1160
2018-12-27T12:07:05.921Z,1368
2018-12-27T12:08:08.145Z,1700
2018-12-27T12:09:10.605Z,1672
2018-12-27T12:10:12.761Z,1788
2018-12-27T12:11:14.934Z,1812
2018-12-27T12:12:17.058Z,1832
2018-12-27T12:13:19.209Z,1688
2018-12-27T12:14:21.344Z,1644
2018-12-27T12:15:23.491Z,1936
2018-12-27T12:16:25.893Z,1752
2018-12-27T12:17:28.038Z,1632
2018-12-27T12:18:30.187Z,1652
2018-12-27T12:19:32.303Z,1620
2018-12-27T12:20:35.695Z,1636
2018-12-27T12:21:38.581Z,1588
2018-12-27T12:22:40.710Z,1564
2018-12-27T12:23:42.852Z,1636
2018-12-27T12:24:44.981Z,1828
2018-12-27T12:25:47.393Z,2020
2018-12-27T12:26:49.539Z,2144
2018-12-27T12:27:51.672Z,2208
2018-12-27T12:28:53.833Z,2208
2018-12-27T12:29:55.961Z,2284
2018-12-27T12:30:58.119Z,2332
2018-12-27T12:32:00.278Z,2416
2018-12-27T12:33:02.965Z,2276
2018-12-27T12:34:05.091Z,2256
2018-12-27T12:35:07.224Z,2236
2018-12-27T12:36:10.762Z,1824
2018-12-27T12:37:14.089Z,1548
2018-12-27T12:38:16.471Z,1488
2018-12-27T12:39:18.622Z,1596
2018-12-27T12:40:20.773Z,1424
2018-12-27T12:41:22.910Z,1472
2018-12-27T12:42:32.584Z,1496
2018-12-27T12:43:35.261Z,1432
2018-12-27T12:44:37.785Z,1504
2018-12-27T12:45:39.937Z,1396
2018-12-27T12:46:42.087Z,1444
2018-12-27T12:47:44.245Z,1360
2018-12-27T12:48:46.400Z,1388
2018-12-27T12:49:48.523Z,1316
2018-12-27T12:50:50.669Z,1416
2018-12-27T12:51:53.119Z,1404
2018-12-27T12:52:55.295Z,1452
2018-12-27T12:53:57.448Z,1420
2018-12-27T12:54:59.916Z,1416
2018-12-27T12:56:02.143Z,1448
2018-12-27T12:57:04.278Z,1356
2018-12-27T12:58:06.422Z,1288
2018-12-27T12:59:08.584Z,1300
2018-12-27T13:00:10.739Z,1280
2018-12-27T13:01:12.878Z,1292
2018-12-27T13:02:15.304Z,1264
2018-12-27T13:03:17.425Z,1236
2018-12-27T13:04:19.545Z,1208
2018-12-27T13:05:21.688Z,1200
2018-12-27T13:06:23.830Z,1228
2018-12-27T13:07:25.988Z,1256
2018-12-27T13:08:28.139Z,1220
2018-12-27T13:09:30.283Z,1224
2018-12-27T13:10:32.415Z,1180
2018-12-27T13:11:34.880Z,1232
2018-12-27T13:12:37.015Z,1204
2018-12-27T13:13:39.155Z,1220
2018-12-27T13:14:41.291Z,1204
2018-12-27T13:15:43.424Z,1272
2018-12-27T13:16:45.539Z,1216
2018-12-27T13:17:47.672Z,1244
2018-12-27T13:18:49.815Z,1180
2018-12-27T13:19:51.959Z,1304
2018-12-27T13:20:54.118Z,1256
2018-12-27T13:21:56.261Z,1260
2018-12-27T13:22:58.408Z,1264
2018-12-27T13:24:00.829Z,1328
2018-12-27T13:25:02.966Z,1320
2018-12-27T13:26:05.147Z,1288
2018-12-27T13:27:07.282Z,1320
2018-12-27T13:28:09.440Z,1252
2018-12-27T13:29:11.562Z,1280
2018-12-27T13:30:13.713Z,1212
2018-12-27T13:31:15.850Z,1272
2018-12-27T13:32:18.013Z,1172
2018-12-27T13:33:20.139Z,1176
2018-12-27T13:34:22.941Z,1196
2018-12-27T13:35:25.072Z,1164
2018-12-27T13:36:27.214Z,1080
2018-12-27T13:37:29.361Z,1044
2018-12-27T13:38:31.564Z,1080
2018-12-27T13:39:33.720Z,1068
2018-12-27T13:40:36.215Z,1040
2018-12-27T13:41:38.616Z,980
2018-12-27T13:42:40.765Z,928
2018-12-27T13:43:42.913Z,868
2018-12-27T13:44:45.066Z,892
2018-12-27T13:45:47.195Z,900
2018-12-27T13:46:49.328Z,852
2018-12-27T13:47:51.466Z,888
2018-12-27T13:48:55.639Z,848
2018-12-27T13:49:57.811Z,864
2018-12-27T13:50:59.951Z,820
2018-12-27T13:52:02.078Z,780
2018-12-27T13:53:04.502Z,812
2018-12-27T13:54:06.648Z,756
2018-12-27T13:55:08.797Z,764
2018-12-27T13:56:10.926Z,796
2018-12-27T13:57:13.081Z,824
2018-12-27T13:58:15.520Z,836
2018-12-27T13:59:17.709Z,824
2018-12-27T14:00:20.540Z,788
2018-12-27T14:01:22.661Z,752
2018-12-27T14:02:24.830Z,744
2018-12-27T14:03:26.991Z,772
2018-12-27T14:04:29.132Z,792
2018-12-27T14:05:31.255Z,708
2018-12-27T14:06:33.403Z,660
2018-12-27T14:07:35.522Z,648
2018-12-27T14:08:37.659Z,652
2018-12-27T14:09:39.798Z,640
2018-12-27T14:10:41.933Z,588
2018-12-27T14:11:44.068Z,548
2018-12-27T14:12:46.216Z,532
2018-12-27T14:13:48.348Z,524
2018-12-27T14:14:50.510Z,452
2018-12-27T14:15:53.037Z,436
2018-12-27T14:16:55.549Z,420
2018-12-27T14:17:57.698Z,400
2018-12-27T14:18:59.841Z,384
2018-12-27T14:20:02.449Z,376
2018-12-27T14:21:04.583Z,360
2018-12-27T14:22:06.740Z,344
2018-12-27T14:23:08.857Z,320
2018-12-27T14:24:10.997Z,316
2018-12-27T14:25:13.121Z,320
2018-12-27T14:26:15.264Z,320
2018-12-27T14:27:17.394Z,304
2018-12-27T14:28:19.536Z,280
2018-12-27T14:29:22.075Z,268
2018-12-27T14:30:24.217Z,264
2018-12-27T14:31:26.351Z,240
2018-12-27T14:32:28.506Z,236
2018-12-27T14:33:30.655Z,220
2018-12-27T14:34:32.792Z,208
2018-12-27T14:35:34.949Z,196
2018-12-27T14:36:39.816Z,196
2018-12-27T14:37:42.362Z,196
2018-12-27T14:38:46.350Z,192